Terminal Aerodrome Forecast
Issued by NWS

Home | Current Version | Previous Version | Text Only | Print | Product List | Glossary On
Versions: 1 2 3 4 5 6 7 8 9 10 11 12
000
FTUS46 KSGX 281131
TAFTRM
TAF
KTRM 281131Z 2812/2912 32011KT P6SM SCT250
     FM281800 35011G20KT P6SM SCT250
     FM290200 32011KT P6SM SCT250=

USA.gov is the U.S. government's official web portal to all federal, state and local government web resources and services.